createdAt,value
2018-11-12T00:00:14.624Z,100642.55
2018-11-12T00:00:45.794Z,100639.91
2018-11-12T00:01:16.936Z,100643.78
2018-11-12T00:01:48.057Z,100642.48
2018-11-12T00:02:19.193Z,100641.59
2018-11-12T00:02:50.321Z,100637.66
2018-11-12T00:03:21.455Z,100642.37
2018-11-12T00:03:52.572Z,100644.94
2018-11-12T00:04:23.743Z,100638.88
2018-11-12T00:04:54.872Z,100646.23
2018-11-12T00:05:26.002Z,100644.55
2018-11-12T00:05:57.132Z,100648.06
2018-11-12T00:06:28.281Z,100641.66
2018-11-12T00:06:59.392Z,100657.62
2018-11-12T00:07:30.491Z,100641.66
2018-11-12T00:08:01.604Z,100642.12
2018-11-12T00:08:32.784Z,100643.41
2018-11-12T00:09:03.953Z,100637.80
2018-11-12T00:09:35.086Z,100647.73
2018-11-12T00:10:06.219Z,100641.27
2018-11-12T00:10:37.327Z,100643.42
2018-11-12T00:11:08.478Z,100644.30
2018-11-12T00:11:39.633Z,100649.43
2018-11-12T00:12:10.764Z,100645.14
2018-11-12T00:12:41.897Z,100651.16
2018-11-12T00:13:13.018Z,100653.31
2018-11-12T00:13:44.143Z,100642.11
2018-11-12T00:14:15.310Z,100644.65
2018-11-12T00:14:46.419Z,100647.22
2018-11-12T00:15:17.551Z,100646.77
2018-11-12T00:15:48.667Z,100645.47
2018-11-12T00:16:19.779Z,100644.56
2018-11-12T00:16:50.912Z,100645.39
2018-11-12T00:17:22.024Z,100644.48
2018-11-12T00:17:53.178Z,100647.46
2018-11-12T00:18:24.318Z,100646.56
2018-11-12T00:18:55.427Z,100648.75
2018-11-12T00:19:26.587Z,100652.58
2018-11-12T00:19:57.700Z,100646.49
2018-11-12T00:20:28.821Z,100648.62
2018-11-12T00:20:59.978Z,100649.08
2018-11-12T00:21:31.091Z,100649.92
2018-11-12T00:22:02.260Z,100649.08
2018-11-12T00:22:33.372Z,100648.62
2018-11-12T00:23:04.517Z,100649.06
2018-11-12T00:23:35.626Z,100649.06
2018-11-12T00:24:06.735Z,100652.04
2018-11-12T00:24:37.886Z,100649.91
2018-11-12T00:25:09.042Z,100649.06
2018-11-12T00:25:40.144Z,100655.92
2018-11-12T00:26:11.270Z,100650.75
2018-11-12T00:26:42.418Z,100655.06
2018-11-12T00:27:13.535Z,100658.05
2018-11-12T00:27:44.707Z,100657.63
2018-11-12T00:28:15.845Z,100658.03
2018-11-12T00:28:46.960Z,100652.84
2018-11-12T00:29:18.088Z,100658.86
2018-11-12T00:29:49.231Z,100655.83
2018-11-12T00:30:20.355Z,100657.49
2018-11-12T00:30:51.479Z,100650.13
2018-11-12T00:31:22.614Z,100654.44
2018-11-12T00:31:53.718Z,100656.98
2018-11-12T00:32:24.850Z,100651.78
2018-11-12T00:32:55.998Z,100652.62
2018-11-12T00:33:27.124Z,100649.59
2018-11-12T00:33:58.253Z,100654.77
2018-11-12T00:34:29.368Z,100657.34
2018-11-12T00:35:00.562Z,100652.62
2018-11-12T00:35:31.719Z,100651.34
2018-11-12T00:36:02.846Z,100646.16
2018-11-12T00:36:33.980Z,100653.53
2018-11-12T00:37:05.092Z,100654.39
2018-11-12T00:37:36.195Z,100654.45
2018-11-12T00:38:07.338Z,100650.14
2018-11-12T00:38:38.472Z,100655.81
2018-11-12T00:39:09.621Z,100652.41
2018-11-12T00:39:40.760Z,100648.53
2018-11-12T00:40:11.927Z,100651.13
2018-11-12T00:40:43.036Z,100655.91
2018-11-12T00:41:14.163Z,100652.04
2018-11-12T00:41:45.305Z,100652.94
2018-11-12T00:42:16.438Z,100648.62
2018-11-12T00:42:47.570Z,100655.14
2018-11-12T00:43:18.662Z,100652.56
2018-11-12T00:43:49.776Z,100649.13
2018-11-12T00:44:20.879Z,100653.87
2018-11-12T00:44:52.030Z,100650.89
2018-11-12T00:45:23.225Z,100649.19
2018-11-12T00:45:54.337Z,100646.62
2018-11-12T00:46:25.508Z,100647.48
2018-11-12T00:46:56.632Z,100646.64
2018-11-12T00:47:27.735Z,100649.21
2018-11-12T00:47:58.880Z,100646.62
2018-11-12T00:48:29.995Z,100643.14
2018-11-12T00:49:01.129Z,100647.45
2018-11-12T00:49:32.265Z,100649.15
2018-11-12T00:50:03.399Z,100642.22
2018-11-12T00:50:34.536Z,100642.21
2018-11-12T00:51:05.692Z,100649.08
2018-11-12T00:51:36.798Z,100642.62
2018-11-12T00:52:07.920Z,100642.17
2018-11-12T00:52:39.046Z,100640.87
2018-11-12T00:53:10.147Z,100640.02
2018-11-12T00:53:41.268Z,100637.88
2018-11-12T00:54:13.058Z,100637.88
2018-11-12T00:54:44.184Z,100640.02
2018-11-12T00:55:15.320Z,100640.47
2018-11-12T00:55:46.458Z,100634.41
2018-11-12T00:56:17.623Z,100640.87
2018-11-12T00:56:48.737Z,100637.00
2018-11-12T00:57:19.834Z,100640.87
2018-11-12T00:57:50.997Z,100640.47
2018-11-12T00:58:22.127Z,100633.57
2018-11-12T00:58:53.229Z,100635.75
2018-11-12T00:59:24.328Z,100634.47
2018-11-12T00:59:55.428Z,100636.20
2018-11-12T01:00:26.531Z,100637.52
2018-11-12T01:00:57.695Z,100641.45
2018-11-12T01:01:28.858Z,100633.69
2018-11-12T01:02:00.010Z,100634.99
2018-11-12T01:02:31.160Z,100638.44
2018-11-12T01:03:02.282Z,100638.02
2018-11-12T01:03:33.398Z,100632.84
2018-11-12T01:04:04.598Z,100637.14
2018-11-12T01:04:35.712Z,100641.45
2018-11-12T01:05:06.814Z,100633.69
2018-11-12T01:05:37.910Z,100637.97
2018-11-12T01:06:09.103Z,100633.24
2018-11-12T01:06:40.236Z,100636.22
2018-11-12T01:07:11.374Z,100633.63
2018-11-12T01:07:42.504Z,100632.34
2018-11-12T01:08:13.630Z,100634.91
2018-11-12T01:08:44.763Z,100632.72
2018-11-12T01:09:15.875Z,100634.00
2018-11-12T01:09:47.068Z,100637.89
2018-11-12T01:10:18.187Z,100635.77
2018-11-12T01:10:49.311Z,100634.92
2018-11-12T01:11:20.466Z,100631.89
2018-11-12T01:11:51.589Z,100636.22
2018-11-12T01:12:22.705Z,100633.19
2018-11-12T01:12:53.835Z,100634.91
2018-11-12T01:13:24.959Z,100633.19
2018-11-12T01:13:56.079Z,100630.19
2018-11-12T01:14:27.220Z,100630.19
2018-11-12T01:14:58.406Z,100636.66
2018-11-12T01:15:29.525Z,100637.52
2018-11-12T01:16:00.736Z,100635.36
2018-11-12T01:16:31.851Z,100636.20
2018-11-12T01:17:02.961Z,100636.20
2018-11-12T01:17:34.099Z,100631.48
2018-11-12T01:18:05.207Z,100640.53
2018-11-12T01:18:36.344Z,100635.77
2018-11-12T01:19:07.452Z,100635.36
2018-11-12T01:19:38.561Z,100633.63
2018-11-12T01:20:09.677Z,100638.80
2018-11-12T01:20:40.816Z,100637.95
2018-11-12T01:21:12.013Z,100631.89
2018-11-12T01:21:43.142Z,100635.36
2018-11-12T01:22:14.263Z,100636.66
2018-11-12T01:22:45.389Z,100637.05
2018-11-12T01:23:16.523Z,100635.78
2018-11-12T01:23:47.696Z,100630.19
2018-11-12T01:24:18.845Z,100636.22
2018-11-12T01:24:49.956Z,100638.36
2018-11-12T01:25:21.074Z,100638.41
2018-11-12T01:25:52.191Z,100634.54
2018-11-12T01:26:23.294Z,100638.42
2018-11-12T01:26:54.418Z,100637.11
2018-11-12T01:27:25.559Z,100637.11
2018-11-12T01:27:56.682Z,100639.72
2018-11-12T01:28:27.815Z,100639.72
2018-11-12T01:28:58.945Z,100638.02
2018-11-12T01:29:30.054Z,100638.44
2018-11-12T01:30:01.176Z,100641.02
2018-11-12T01:30:32.281Z,100643.60
2018-11-12T01:31:03.412Z,100641.45
2018-11-12T01:31:34.645Z,100638.02
2018-11-12T01:32:05.776Z,100643.60
2018-11-12T01:32:36.892Z,100644.48
2018-11-12T01:33:08.012Z,100644.04
2018-11-12T01:33:39.134Z,100641.45
2018-11-12T01:34:10.244Z,100645.73
2018-11-12T01:34:41.362Z,100644.89
2018-11-12T01:35:12.491Z,100644.03
2018-11-12T01:35:43.600Z,100643.53
2018-11-12T01:36:14.711Z,100648.30
2018-11-12T01:36:45.900Z,100646.56
2018-11-12T01:37:17.055Z,100650.00
2018-11-12T01:37:48.181Z,100651.72
2018-11-12T01:38:19.336Z,100652.16
2018-11-12T01:38:50.518Z,100647.39
2018-11-12T01:39:21.656Z,100651.28
2018-11-12T01:39:52.806Z,100653.87
2018-11-12T01:40:23.920Z,100652.57
2018-11-12T01:40:55.043Z,100656.05
2018-11-12T01:41:26.158Z,100652.95
2018-11-12T01:41:57.335Z,100661.55
2018-11-12T01:42:28.465Z,100656.38
2018-11-12T01:42:59.607Z,100650.80
2018-11-12T01:43:30.708Z,100659.84
2018-11-12T01:44:01.812Z,100658.55
2018-11-12T01:44:32.927Z,100659.80
2018-11-12T01:45:04.058Z,100660.25
2018-11-12T01:45:35.164Z,100656.81
2018-11-12T01:46:06.277Z,100659.39
2018-11-12T01:46:37.403Z,100657.63
2018-11-12T01:47:08.523Z,100658.48
2018-11-12T01:47:39.639Z,100666.69
2018-11-12T01:48:10.783Z,100663.21
2018-11-12T01:48:41.913Z,100661.52
2018-11-12T01:49:13.049Z,100661.06
2018-11-12T01:49:44.154Z,100664.04
2018-11-12T01:50:15.258Z,100665.34
2018-11-12T01:50:46.428Z,100658.42
2018-11-12T01:51:17.535Z,100663.13
2018-11-12T01:51:48.687Z,100667.00
2018-11-12T01:52:19.816Z,100664.81
2018-11-12T01:52:50.918Z,100665.25
2018-11-12T01:53:22.104Z,100666.98
2018-11-12T01:53:53.216Z,100664.80
2018-11-12T01:54:24.364Z,100669.11
2018-11-12T01:54:55.536Z,100666.92
2018-11-12T01:55:26.666Z,100666.02
2018-11-12T01:55:57.819Z,100667.75
2018-11-12T01:56:28.941Z,100667.73
2018-11-12T01:57:00.077Z,100666.00
2018-11-12T01:57:31.238Z,100662.06
2018-11-12T01:58:02.407Z,100667.19
2018-11-12T01:58:33.515Z,100666.73
2018-11-12T01:59:04.660Z,100665.39
2018-11-12T01:59:35.817Z,100664.09
2018-11-12T02:00:06.974Z,100661.06
2018-11-12T02:00:38.102Z,100659.77
2018-11-12T02:01:09.197Z,100661.90
2018-11-12T02:01:40.391Z,100657.56
2018-11-12T02:02:11.510Z,100659.75
2018-11-12T02:02:42.650Z,100656.78
2018-11-12T02:03:13.764Z,100658.92
2018-11-12T02:03:45.220Z,100658.08
2018-11-12T02:04:16.332Z,100654.22
2018-11-12T02:04:47.502Z,100660.27
2018-11-12T02:05:18.594Z,100663.27
2018-11-12T02:05:49.698Z,100653.81
2018-11-12T02:06:20.875Z,100655.95
2018-11-12T02:06:51.922Z,100649.05
2018-11-12T02:07:23.034Z,100653.77
2018-11-12T02:07:54.138Z,100655.50
2018-11-12T02:08:25.268Z,100658.98
2018-11-12T02:08:56.523Z,100652.09
2018-11-12T02:09:27.581Z,100657.69
2018-11-12T02:09:58.683Z,100655.53
2018-11-12T02:10:29.821Z,100654.69
2018-11-12T02:11:00.943Z,100657.33
2018-11-12T02:11:32.040Z,100657.77
2018-11-12T02:12:03.150Z,100657.34
2018-11-12T02:12:34.249Z,100654.82
2018-11-12T02:13:05.351Z,100655.23
2018-11-12T02:13:36.471Z,100656.58
2018-11-12T02:14:07.622Z,100655.75
2018-11-12T02:14:38.864Z,100652.31
2018-11-12T02:15:09.935Z,100650.58
2018-11-12T02:15:41.035Z,100653.18
2018-11-12T02:16:12.179Z,100651.05
2018-11-12T02:16:43.292Z,100650.60
2018-11-12T02:17:14.395Z,100651.49
2018-11-12T02:17:45.503Z,100649.31
2018-11-12T02:18:16.608Z,100653.19
2018-11-12T02:18:47.734Z,100651.49
2018-11-12T02:19:18.876Z,100650.20
2018-11-12T02:19:50.034Z,100652.80
2018-11-12T02:20:21.136Z,100649.80
2018-11-12T02:20:52.253Z,100651.56
2018-11-12T02:21:23.355Z,100652.41
2018-11-12T02:21:54.501Z,100648.59
2018-11-12T02:22:25.653Z,100652.02
2018-11-12T02:22:56.787Z,100653.26
2018-11-12T02:23:27.897Z,100655.44
2018-11-12T02:23:59.023Z,100657.97
2018-11-12T02:24:30.126Z,100655.39
2018-11-12T02:25:01.257Z,100651.09
2018-11-12T02:25:32.388Z,100652.80
2018-11-12T02:26:03.517Z,100651.94
2018-11-12T02:26:34.647Z,100655.37
2018-11-12T02:27:05.811Z,100657.94
2018-11-12T02:27:36.932Z,100649.75
2018-11-12T02:28:08.044Z,100654.47
2018-11-12T02:28:39.183Z,100653.18
2018-11-12T02:29:10.359Z,100652.73
2018-11-12T02:29:41.477Z,100645.41
2018-11-12T02:30:12.612Z,100653.63
2018-11-12T02:30:43.751Z,100648.86
2018-11-12T02:31:14.899Z,100648.45
2018-11-12T02:31:46.038Z,100647.15
2018-11-12T02:32:17.179Z,100641.10
2018-11-12T02:32:48.306Z,100647.15
2018-11-12T02:33:19.504Z,100642.83
2018-11-12T02:33:50.597Z,100645.81
2018-11-12T02:34:21.700Z,100651.42
2018-11-12T02:34:52.831Z,100648.38
2018-11-12T02:35:23.957Z,100646.19
2018-11-12T02:35:55.112Z,100644.03
2018-11-12T02:36:26.326Z,100652.18
2018-11-12T02:36:57.466Z,100647.02
2018-11-12T02:37:28.577Z,100645.73
2018-11-12T02:37:59.705Z,100645.33
2018-11-12T02:38:30.815Z,100641.84
2018-11-12T02:39:01.923Z,100645.27
2018-11-12T02:39:33.039Z,100655.58
2018-11-12T02:40:04.182Z,100651.26
2018-11-12T02:40:35.296Z,100645.25
2018-11-12T02:41:06.420Z,100646.54
2018-11-12T02:41:37.591Z,100643.51
2018-11-12T02:42:08.736Z,100646.09
2018-11-12T02:42:39.846Z,100646.48
2018-11-12T02:43:10.974Z,100646.09
2018-11-12T02:43:42.075Z,100639.20
2018-11-12T02:44:13.238Z,100641.38
2018-11-12T02:44:44.354Z,100646.56
2018-11-12T02:45:15.527Z,100643.98
2018-11-12T02:45:46.660Z,100642.27
2018-11-12T02:46:17.790Z,100644.87
2018-11-12T02:46:48.906Z,100643.98
2018-11-12T02:47:20.040Z,100647.02
2018-11-12T02:47:51.326Z,100648.31
2018-11-12T02:48:22.474Z,100644.44
2018-11-12T02:48:53.593Z,100651.34
2018-11-12T02:49:24.690Z,100650.05
2018-11-12T02:49:55.802Z,100648.82
2018-11-12T02:50:27.679Z,100651.41
2018-11-12T02:50:58.792Z,100649.73
2018-11-12T02:51:29.918Z,100646.72
2018-11-12T02:52:01.065Z,100650.19
2018-11-12T02:52:32.177Z,100649.30
2018-11-12T02:53:03.346Z,100651.49
2018-11-12T02:53:34.475Z,100647.62
2018-11-12T02:54:05.607Z,100644.64
2018-11-12T02:54:36.751Z,100646.77
2018-11-12T02:55:07.862Z,100641.98
2018-11-12T02:55:39.002Z,100638.06
2018-11-12T02:56:10.149Z,100640.64
2018-11-12T02:56:41.252Z,100642.77
2018-11-12T02:57:12.366Z,100641.48
2018-11-12T02:57:43.522Z,100644.48
2018-11-12T02:58:14.627Z,100643.56
2018-11-12T02:58:45.733Z,100646.15
2018-11-12T02:59:16.839Z,100651.36
2018-11-12T02:59:47.949Z,100642.39
2018-11-12T03:00:19.051Z,100652.39
2018-11-12T03:00:50.194Z,100653.72
2018-11-12T03:01:21.339Z,100651.19
2018-11-12T03:01:52.516Z,100652.09
2018-11-12T03:02:23.616Z,100653.84
2018-11-12T03:02:54.734Z,100648.68
2018-11-12T03:03:25.893Z,100650.94
2018-11-12T03:03:57.019Z,100651.86
2018-11-12T03:04:28.178Z,100650.58
2018-11-12T03:04:59.288Z,100652.65
2018-11-12T03:05:30.387Z,100651.80
2018-11-12T03:06:01.512Z,100651.41
2018-11-12T03:06:32.677Z,100652.64
2018-11-12T03:07:03.792Z,100655.23
2018-11-12T03:07:35.035Z,100657.41
2018-11-12T03:08:06.101Z,100650.88
2018-11-12T03:08:37.211Z,100654.75
2018-11-12T03:09:08.359Z,100657.75
2018-11-12T03:09:39.483Z,100657.73
2018-11-12T03:10:10.612Z,100659.48
2018-11-12T03:10:41.755Z,100657.35
2018-11-12T03:11:12.899Z,100659.10
2018-11-12T03:11:44.030Z,100656.91
2018-11-12T03:12:15.146Z,100660.33
2018-11-12T03:12:46.247Z,100658.20
2018-11-12T03:13:17.398Z,100659.55
2018-11-12T03:13:48.506Z,100657.81
2018-11-12T03:14:19.644Z,100661.23
2018-11-12T03:14:50.743Z,100660.37
2018-11-12T03:15:21.907Z,100660.33
2018-11-12T03:15:53.024Z,100659.02
2018-11-12T03:16:24.163Z,100664.14
2018-11-12T03:16:55.342Z,100663.66
2018-11-12T03:17:26.451Z,100660.16
2018-11-12T03:17:57.654Z,100658.88
2018-11-12T03:18:28.804Z,100665.31
2018-11-12T03:18:59.906Z,100661.44
2018-11-12T03:19:31.033Z,100659.73
2018-11-12T03:20:02.164Z,100664.04
2018-11-12T03:20:33.320Z,100660.16
2018-11-12T03:21:04.436Z,100661.85
2018-11-12T03:21:35.551Z,100666.16
2018-11-12T03:22:06.672Z,100666.94
2018-11-12T03:22:37.789Z,100664.77
2018-11-12T03:23:08.895Z,100667.31
2018-11-12T03:23:40.031Z,100666.86
2018-11-12T03:24:11.136Z,100672.91
2018-11-12T03:24:42.256Z,100667.73
2018-11-12T03:25:13.394Z,100670.28
2018-11-12T03:25:44.555Z,100669.42
2018-11-12T03:26:15.667Z,100676.27
2018-11-12T03:26:46.776Z,100674.98
2018-11-12T03:27:17.883Z,100673.66
2018-11-12T03:27:49.063Z,100678.83
2018-11-12T03:28:20.190Z,100672.31
2018-11-12T03:28:51.306Z,100674.88
2018-11-12T03:29:22.415Z,100673.14
2018-11-12T03:29:53.518Z,100675.33
2018-11-12T03:30:24.649Z,100677.00
2018-11-12T03:30:55.814Z,100677.84
2018-11-12T03:31:26.929Z,100674.79
2018-11-12T03:31:58.058Z,100677.76
2018-11-12T03:32:29.222Z,100674.70
2018-11-12T03:33:00.355Z,100678.50
2018-11-12T03:33:31.473Z,100682.81
2018-11-12T03:34:02.603Z,100680.22
2018-11-12T03:34:33.737Z,100681.04
2018-11-12T03:35:04.863Z,100682.73
2018-11-12T03:35:35.985Z,100679.69
2018-11-12T03:36:07.164Z,100688.27
2018-11-12T03:36:38.288Z,100686.97
2018-11-12T03:37:09.395Z,100688.63
2018-11-12T03:37:40.538Z,100689.47
2018-11-12T03:38:11.771Z,100687.31
2018-11-12T03:38:42.883Z,100687.69
2018-11-12T03:39:13.986Z,100691.55
2018-11-12T03:39:45.185Z,100686.77
2018-11-12T03:40:16.228Z,100691.03
2018-11-12T03:40:47.380Z,100666.20
2018-11-12T03:41:18.508Z,100696.52
2018-11-12T03:41:49.675Z,100704.19
2018-11-12T03:42:20.792Z,100692.09
2018-11-12T03:42:51.894Z,100696.31
2018-11-12T03:43:23.080Z,100697.15
2018-11-12T03:43:54.226Z,100698.37
2018-11-12T03:44:25.340Z,100697.50
2018-11-12T03:44:56.469Z,100694.85
2018-11-12T03:45:27.573Z,100694.85
2018-11-12T03:45:58.679Z,100696.98
2018-11-12T03:46:29.814Z,100695.69
2018-11-12T03:47:00.918Z,100693.53
2018-11-12T03:47:32.054Z,100696.95
2018-11-12T03:48:03.156Z,100693.08
2018-11-12T03:48:34.298Z,100697.78
2018-11-12T03:49:05.493Z,100696.95
2018-11-12T03:49:36.640Z,100696.09
2018-11-12T03:50:07.775Z,100695.20
2018-11-12T03:50:38.923Z,100691.30
2018-11-12T03:51:10.106Z,100695.55
2018-11-12T03:51:41.256Z,100692.52
2018-11-12T03:52:12.428Z,100695.08
2018-11-12T03:52:43.544Z,100696.80
2018-11-12T03:53:14.673Z,100697.64
2018-11-12T03:53:45.820Z,100704.55
2018-11-12T03:54:16.971Z,100697.19
2018-11-12T03:54:48.099Z,100695.45
2018-11-12T03:55:19.237Z,100698.88
2018-11-12T03:55:50.350Z,100697.19
2018-11-12T03:56:21.466Z,100701.05
2018-11-12T03:56:52.584Z,100704.47
2018-11-12T03:57:23.711Z,100700.13
2018-11-12T03:57:54.826Z,100704.81
2018-11-12T03:58:25.962Z,100705.62
2018-11-12T03:58:57.148Z,100704.27
2018-11-12T03:59:28.354Z,100705.92
2018-11-12T03:59:59.517Z,100703.69
2018-11-12T04:00:30.744Z,100711.01
2018-11-12T04:01:01.771Z,100706.23
2018-11-12T04:01:32.952Z,100710.89
2018-11-12T04:02:04.096Z,100711.66
2018-11-12T04:02:35.224Z,100711.20
2018-11-12T04:03:06.339Z,100709.44
2018-11-12T04:03:37.454Z,100708.20
2018-11-12T04:04:08.586Z,100704.26
2018-11-12T04:04:39.764Z,100706.86
2018-11-12T04:05:10.884Z,100709.87
2018-11-12T04:05:42.024Z,100705.50
2018-11-12T04:06:13.158Z,100708.01
2018-11-12T04:06:44.341Z,100704.93
2018-11-12T04:07:15.479Z,100706.22
2018-11-12T04:07:46.634Z,100708.37
2018-11-12T04:08:17.754Z,100708.37
2018-11-12T04:08:48.900Z,100708.42
2018-11-12T04:09:20.096Z,100705.39
2018-11-12T04:09:51.239Z,100709.30
2018-11-12T04:10:22.367Z,100710.19
2018-11-12T04:10:53.473Z,100714.53
2018-11-12T04:11:24.624Z,100714.55
2018-11-12T04:11:55.750Z,100711.59
2018-11-12T04:12:26.918Z,100713.73
2018-11-12T04:12:58.047Z,100709.48
2018-11-12T04:13:29.173Z,100712.94
2018-11-12T04:14:00.327Z,100711.73
2018-11-12T04:14:31.455Z,100710.91
2018-11-12T04:15:02.608Z,100715.27
2018-11-12T04:15:33.744Z,100713.62
2018-11-12T04:16:04.859Z,100716.20
2018-11-12T04:16:35.977Z,100716.66
2018-11-12T04:17:07.142Z,100394.28
2018-11-12T04:17:38.286Z,100720.11
2018-11-12T04:18:09.451Z,100717.98
2018-11-12T04:18:40.614Z,100717.53
2018-11-12T04:19:11.733Z,100721.40
2018-11-12T04:19:42.882Z,100718.40
2018-11-12T04:20:14.010Z,100720.52
2018-11-12T04:20:45.181Z,100721.81
2018-11-12T04:21:16.334Z,100722.22
2018-11-12T04:21:47.508Z,100720.55
2018-11-12T04:22:18.668Z,100725.27
2018-11-12T04:22:49.801Z,100720.98
2018-11-12T04:23:20.957Z,100728.27
2018-11-12T04:23:52.133Z,100724.77
2018-11-12T04:24:23.260Z,100721.72
2018-11-12T04:24:54.398Z,100726.78
2018-11-12T04:25:25.520Z,100724.18
2018-11-12T04:25:56.654Z,100725.91
2018-11-12T04:26:27.800Z,100724.09
2018-11-12T04:26:58.915Z,100724.06
2018-11-12T04:27:30.073Z,100727.48
2018-11-12T04:28:01.190Z,100728.72
2018-11-12T04:28:32.328Z,100723.55
2018-11-12T04:29:03.481Z,100725.67
2018-11-12T04:29:34.639Z,100725.67
2018-11-12T04:30:05.776Z,100729.52
2018-11-12T04:30:36.912Z,100733.33
2018-11-12T04:31:08.051Z,100734.22
2018-11-12T04:31:39.230Z,100732.09
2018-11-12T04:32:10.369Z,100729.10
2018-11-12T04:32:41.480Z,100732.57
2018-11-12T04:33:12.658Z,100731.70
2018-11-12T04:33:43.806Z,100738.20
2018-11-12T04:34:14.927Z,100737.31
2018-11-12T04:34:46.041Z,100736.94
2018-11-12T04:35:17.161Z,100740.42
2018-11-12T04:35:48.333Z,100739.55
2018-11-12T04:36:19.445Z,100740.02
2018-11-12T04:36:50.551Z,100734.86
2018-11-12T04:37:21.660Z,100740.02
2018-11-12T04:37:52.772Z,100742.13
2018-11-12T04:38:23.897Z,100745.58
2018-11-12T04:38:55.061Z,100745.05
2018-11-12T04:39:26.184Z,100748.87
2018-11-12T04:39:57.305Z,100747.98
2018-11-12T04:40:28.458Z,100750.08
2018-11-12T04:40:59.594Z,100753.09
2018-11-12T04:41:30.732Z,100753.47
2018-11-12T04:42:01.854Z,100746.57
2018-11-12T04:42:33.007Z,100754.73
2018-11-12T04:43:04.138Z,100752.11
2018-11-12T04:43:35.265Z,100748.67
2018-11-12T04:44:06.424Z,100756.84
2018-11-12T04:44:37.558Z,100755.47
2018-11-12T04:45:08.739Z,100750.30
2018-11-12T04:45:39.933Z,100754.61
2018-11-12T04:46:11.111Z,100803.61
2018-11-12T04:46:42.239Z,100753.42
2018-11-12T04:47:13.358Z,100749.15
2018-11-12T04:47:44.492Z,100746.63
2018-11-12T04:48:15.660Z,100748.04
2018-11-12T04:48:46.810Z,100749.75
2018-11-12T04:49:17.923Z,100750.66
2018-11-12T04:49:49.041Z,100752.86
2018-11-12T04:50:20.189Z,100752.45
2018-11-12T04:50:51.331Z,100755.89
2018-11-12T04:51:22.462Z,100756.37
2018-11-12T04:51:53.591Z,100753.81
2018-11-12T04:52:24.731Z,100759.80
2018-11-12T04:52:55.871Z,100753.73
2018-11-12T04:53:27.062Z,100755.80
2018-11-12T04:53:58.198Z,100760.92
2018-11-12T04:54:29.338Z,100755.69
2018-11-12T04:55:00.525Z,100753.55
2018-11-12T04:55:31.629Z,100756.94
2018-11-12T04:56:02.755Z,100758.17
2018-11-12T04:56:33.901Z,100754.28
2018-11-12T04:57:05.064Z,100749.56
2018-11-12T04:57:36.178Z,100750.41
2018-11-12T04:58:07.309Z,100745.27
2018-11-12T04:58:38.455Z,100753.09
2018-11-12T04:59:09.646Z,100750.08
2018-11-12T04:59:40.720Z,100751.45
2018-11-12T05:00:11.859Z,100754.88
2018-11-12T05:00:42.969Z,100754.91
2018-11-12T05:01:14.141Z,100752.41
2018-11-12T05:01:45.296Z,100758.39
2018-11-12T05:02:16.491Z,100762.26
2018-11-12T05:02:47.662Z,100758.84
2018-11-12T05:03:18.774Z,100761.42
2018-11-12T05:03:49.918Z,100760.11
2018-11-12T05:04:21.069Z,100762.64
2018-11-12T05:04:52.465Z,100765.67
2018-11-12T05:05:23.589Z,100767.84
2018-11-12T05:05:54.734Z,100770.83
2018-11-12T05:06:25.886Z,100769.95
2018-11-12T05:06:57.004Z,100767.38
2018-11-12T05:07:28.292Z,100768.53
2018-11-12T05:07:59.388Z,100772.78
2018-11-12T05:08:30.504Z,100775.25
2018-11-12T05:09:01.660Z,100773.89
2018-11-12T05:09:32.781Z,100780.63
2018-11-12T05:10:03.937Z,100774.09
2018-11-12T05:10:35.084Z,100780.45
2018-11-12T05:11:06.211Z,100776.13
2018-11-12T05:11:37.350Z,100774.36
2018-11-12T05:12:08.493Z,100790.17
2018-11-12T05:12:39.604Z,100776.41
2018-11-12T05:13:10.721Z,100774.20
2018-11-12T05:13:41.836Z,100773.27
2018-11-12T05:14:13.006Z,100773.70
2018-11-12T05:14:44.128Z,100777.13
2018-11-12T05:15:15.334Z,100780.51
2018-11-12T05:15:46.455Z,100772.33
2018-11-12T05:16:17.598Z,100783.55
2018-11-12T05:16:48.759Z,100779.25
2018-11-12T05:17:19.888Z,100776.64
2018-11-12T05:17:51.048Z,100778.39
2018-11-12T05:18:22.216Z,100773.64
2018-11-12T05:18:53.409Z,100784.00
2018-11-12T05:19:24.539Z,100782.77
2018-11-12T05:19:55.691Z,100784.08
2018-11-12T05:20:26.878Z,100787.14
2018-11-12T05:20:58.010Z,100787.67
2018-11-12T05:21:29.156Z,100794.59
2018-11-12T05:22:00.289Z,100791.22
2018-11-12T05:22:31.427Z,100792.16
2018-11-12T05:23:02.575Z,100788.75
2018-11-12T05:23:33.751Z,100770.02
2018-11-12T05:24:04.944Z,100789.58
2018-11-12T05:24:36.060Z,100793.03
2018-11-12T05:25:07.180Z,100790.94
2018-11-12T05:25:38.329Z,100788.45
2018-11-12T05:26:09.443Z,100794.08
2018-11-12T05:26:40.582Z,100793.27
2018-11-12T05:27:11.735Z,100792.46
2018-11-12T05:27:42.872Z,100792.94
2018-11-12T05:28:14.014Z,100792.56
2018-11-12T05:28:45.128Z,100795.64
2018-11-12T05:29:16.347Z,100790.95
2018-11-12T05:29:47.483Z,100792.73
2018-11-12T05:30:18.613Z,100795.85
2018-11-12T05:30:49.795Z,100798.93
2018-11-12T05:31:20.913Z,100790.82
2018-11-12T05:31:52.034Z,100795.64
2018-11-12T05:32:23.218Z,100798.28
2018-11-12T05:32:54.358Z,100793.61
2018-11-12T05:33:25.546Z,100801.42
2018-11-12T05:33:56.668Z,100795.88
2018-11-12T05:34:27.794Z,100800.25
2018-11-12T05:34:58.902Z,100798.63
2018-11-12T05:35:30.074Z,100798.70
2018-11-12T05:36:01.199Z,100804.35
2018-11-12T05:36:32.334Z,100800.94
2018-11-12T05:37:03.459Z,100798.73
2018-11-12T05:37:34.684Z,100798.28
2018-11-12T05:38:05.786Z,100798.73
2018-11-12T05:38:36.870Z,100799.17
2018-11-12T05:39:07.992Z,100800.46
2018-11-12T05:39:39.152Z,100797.41
2018-11-12T05:40:10.303Z,100799.98
2018-11-12T05:40:41.494Z,100800.41
2018-11-12T05:41:12.637Z,100803.88
2018-11-12T05:41:43.799Z,100797.45
2018-11-12T05:42:14.938Z,100799.09
2018-11-12T05:42:46.058Z,100806.45
2018-11-12T05:43:17.183Z,100803.92
2018-11-12T05:43:48.312Z,100811.63
2018-11-12T05:44:19.438Z,100809.09
2018-11-12T05:44:50.607Z,100814.38
2018-11-12T05:45:21.750Z,100809.67
2018-11-12T05:45:52.882Z,100811.80
2018-11-12T05:46:24.049Z,100819.61
2018-11-12T05:46:55.200Z,100814.55
2018-11-12T05:47:26.319Z,100815.39
2018-11-12T05:47:57.440Z,100818.00
2018-11-12T05:48:28.599Z,100815.02
2018-11-12T05:48:59.749Z,100817.59
2018-11-12T05:49:30.896Z,100816.78
2018-11-12T05:50:02.045Z,100820.63
2018-11-12T05:50:33.190Z,100824.97
2018-11-12T05:51:04.330Z,100823.69
2018-11-12T05:51:35.633Z,100821.52
2018-11-12T05:52:06.687Z,100826.33
2018-11-12T05:52:37.831Z,100822.92
2018-11-12T05:53:08.945Z,100833.36
2018-11-12T05:53:40.103Z,100826.07
2018-11-12T05:54:11.251Z,100836.11
2018-11-12T05:54:42.382Z,100837.00
2018-11-12T05:55:13.480Z,100839.66